sensor_id;sensor_type;location;lat;lon;timestamp;pressure;altitude;pressure_sealevel;temperature;humidity
18900;BME280;9582;52.018;6.306;2023-08-06T00:00:51;100647.72;;;14.47;70.33
18900;BME280;9582;52.018;6.306;2023-08-06T00:03:18;100655.50;;;14.49;69.78
18900;BME280;9582;52.018;6.306;2023-08-06T00:05:44;100648.47;;;14.49;69.41
18900;BME280;9582;52.018;6.306;2023-08-06T00:08:12;100648.38;;;14.51;69.03
18900;BME280;9582;52.018;6.306;2023-08-06T00:10:39;100653.53;;;14.52;68.44
18900;BME280;9582;52.018;6.306;2023-08-06T00:13:05;100654.25;;;14.54;68.14
18900;BME280;9582;52.018;6.306;2023-08-06T00:15:32;100643.53;;;14.57;67.81
18900;BME280;9582;52.018;6.306;2023-08-06T00:17:58;100639.13;;;14.58;67.38
18900;BME280;9582;52.018;6.306;2023-08-06T00:20:25;100633.75;;;14.59;67.12
18900;BME280;9582;52.018;6.306;2023-08-06T00:22:51;100630.13;;;14.62;66.71
18900;BME280;9582;52.018;6.306;2023-08-06T00:25:19;100628.41;;;14.61;66.60
18900;BME280;9582;52.018;6.306;2023-08-06T00:27:45;100623.16;;;14.61;66.51
18900;BME280;9582;52.018;6.306;2023-08-06T00:30:12;100623.16;;;14.61;66.38
18900;BME280;9582;52.018;6.306;2023-08-06T00:32:38;100628.31;;;14.62;66.13
18900;BME280;9582;52.018;6.306;2023-08-06T00:35:06;100626.53;;;14.63;65.95
18900;BME280;9582;52.018;6.306;2023-08-06T00:37:33;100623.81;;;14.64;65.77
18900;BME280;9582;52.018;6.306;2023-08-06T00:39:59;100614.22;;;14.63;65.31
18900;BME280;9582;52.018;6.306;2023-08-06T00:42:27;100619.59;;;14.62;64.97
18900;BME280;9582;52.018;6.306;2023-08-06T00:44:54;100618.63;;;14.63;64.77
18900;BME280;9582;52.018;6.306;2023-08-06T00:47:20;100620.41;;;14.62;64.71
18900;BME280;9582;52.018;6.306;2023-08-06T00:49:47;100619.47;;;14.63;64.56
18900;BME280;9582;52.018;6.306;2023-08-06T00:52:13;100618.75;;;14.61;64.32
18900;BME280;9582;52.018;6.306;2023-08-06T00:54:40;100615.16;;;14.62;64.18
18900;BME280;9582;52.018;6.306;2023-08-06T00:57:07;100616.00;;;14.63;63.94
18900;BME280;9582;52.018;6.306;2023-08-06T00:59:37;100616.00;;;14.63;63.76
18900;BME280;9582;52.018;6.306;2023-08-06T01:02:04;100616.19;;;14.60;63.62
18900;BME280;9582;52.018;6.306;2023-08-06T01:04:31;100615.25;;;14.61;63.45
18900;BME280;9582;52.018;6.306;2023-08-06T01:07:04;100610.00;;;14.61;63.18
18900;BME280;9582;52.018;6.306;2023-08-06T01:09:41;100616.19;;;14.60;62.94
18900;BME280;9582;52.018;6.306;2023-08-06T01:12:20;100611.03;;;14.58;62.82
18900;BME280;9582;52.018;6.306;2023-08-06T01:14:56;100603.16;;;14.58;62.74
18900;BME280;9582;52.018;6.306;2023-08-06T01:17:24;100607.75;;;14.55;62.80
18900;BME280;9582;52.018;6.306;2023-08-06T01:19:52;100601.75;;;14.53;62.79
18900;BME280;9582;52.018;6.306;2023-08-06T01:22:19;100599.97;;;14.53;62.76
18900;BME280;9582;52.018;6.306;2023-08-06T01:24:48;100602.59;;;14.53;62.50
18900;BME280;9582;52.018;6.306;2023-08-06T01:27:23;100597.16;;;14.56;62.19
18900;BME280;9582;52.018;6.306;2023-08-06T01:29:58;100597.88;;;14.58;61.96
18900;BME280;9582;52.018;6.306;2023-08-06T01:32:29;100595.25;;;14.58;61.76
18900;BME280;9582;52.018;6.306;2023-08-06T01:34:59;100593.34;;;14.60;61.74
18900;BME280;9582;52.018;6.306;2023-08-06T01:37:27;100592.44;;;14.61;61.65
18900;BME280;9582;52.018;6.306;2023-08-06T01:39:54;100590.72;;;14.60;61.50
18900;BME280;9582;52.018;6.306;2023-08-06T01:42:21;100591.47;;;14.62;61.34
18900;BME280;9582;52.018;6.306;2023-08-06T01:44:47;100590.53;;;14.63;61.24
18900;BME280;9582;52.018;6.306;2023-08-06T01:47:14;100580.84;;;14.64;61.19
18900;BME280;9582;52.018;6.306;2023-08-06T01:49:40;100581.50;;;14.67;61.12
18900;BME280;9582;52.018;6.306;2023-08-06T01:52:07;100582.44;;;14.66;61.10
18900;BME280;9582;52.018;6.306;2023-08-06T01:54:35;100581.50;;;14.67;61.06
18900;BME280;9582;52.018;6.306;2023-08-06T01:57:01;100573.63;;;14.67;61.00
18900;BME280;9582;52.018;6.306;2023-08-06T01:59:28;100582.25;;;14.69;60.92
18900;BME280;9582;52.018;6.306;2023-08-06T02:01:54;100576.13;;;14.69;60.85
18900;BME280;9582;52.018;6.306;2023-08-06T02:04:21;100566.53;;;14.68;60.84
18900;BME280;9582;52.018;6.306;2023-08-06T02:06:47;100579.59;;;14.69;60.83
18900;BME280;9582;52.018;6.306;2023-08-06T02:09:14;100572.66;;;14.68;60.79
18900;BME280;9582;52.018;6.306;2023-08-06T02:11:42;100566.44;;;14.69;60.78
18900;BME280;9582;52.018;6.306;2023-08-06T02:14:08;100568.16;;;14.70;60.79
18900;BME280;9582;52.018;6.306;2023-08-06T02:16:35;100574.34;;;14.69;60.66
18900;BME280;9582;52.018;6.306;2023-08-06T02:19:01;100570.00;;;14.68;60.62
18900;BME280;9582;52.018;6.306;2023-08-06T02:21:28;100558.63;;;14.68;60.52
18900;BME280;9582;52.018;6.306;2023-08-06T02:23:55;100563.91;;;14.68;60.45
18900;BME280;9582;52.018;6.306;2023-08-06T02:26:21;100564.56;;;14.71;60.37
18900;BME280;9582;52.018;6.306;2023-08-06T02:28:49;100557.69;;;14.69;60.30
18900;BME280;9582;52.018;6.306;2023-08-06T02:31:16;100554.03;;;14.71;60.28
18900;BME280;9582;52.018;6.306;2023-08-06T02:33:42;100547.09;;;14.70;60.27
18900;BME280;9582;52.018;6.306;2023-08-06T02:36:10;100547.09;;;14.70;60.22
18900;BME280;9582;52.018;6.306;2023-08-06T02:38:36;100542.75;;;14.69;60.16
18900;BME280;9582;52.018;6.306;2023-08-06T02:41:03;100543.69;;;14.68;60.08
18900;BME280;9582;52.018;6.306;2023-08-06T02:43:30;100539.28;;;14.69;59.98
18900;BME280;9582;52.018;6.306;2023-08-06T02:45:58;100539.41;;;14.67;59.89
18900;BME280;9582;52.018;6.306;2023-08-06T02:48:25;100536.78;;;14.67;59.82
18900;BME280;9582;52.018;6.306;2023-08-06T02:50:52;100533.38;;;14.65;59.74
18900;BME280;9582;52.018;6.306;2023-08-06T02:53:19;100530.75;;;14.65;59.70
18900;BME280;9582;52.018;6.306;2023-08-06T02:55:48;100531.59;;;14.66;59.67
18900;BME280;9582;52.018;6.306;2023-08-06T02:58:18;100528.03;;;14.67;59.52
18900;BME280;9582;52.018;6.306;2023-08-06T03:01:03;100520.13;;;14.67;59.44
18900;BME280;9582;52.018;6.306;2023-08-06T03:03:35;100522.03;;;14.65;59.37
18900;BME280;9582;52.018;6.306;2023-08-06T03:06:03;100513.38;;;14.63;59.31
18900;BME280;9582;52.018;6.306;2023-08-06T03:08:37;100509.81;;;14.64;59.26
18900;BME280;9582;52.018;6.306;2023-08-06T03:11:04;100509.81;;;14.64;59.22
18900;BME280;9582;52.018;6.306;2023-08-06T03:13:31;100508.97;;;14.63;59.20
18900;BME280;9582;52.018;6.306;2023-08-06T03:15:59;100503.69;;;14.63;59.17
18900;BME280;9582;52.018;6.306;2023-08-06T03:18:28;100505.38;;;14.64;59.16
18900;BME280;9582;52.018;6.306;2023-08-06T03:20:56;100501.78;;;14.65;59.17
18900;BME280;9582;52.018;6.306;2023-08-06T03:23:26;100500.13;;;14.64;59.15
18900;BME280;9582;52.018;6.306;2023-08-06T03:25:53;100504.53;;;14.64;59.11
18900;BME280;9582;52.018;6.306;2023-08-06T03:28:19;100509.88;;;14.62;59.09
18900;BME280;9582;52.018;6.306;2023-08-06T03:30:47;100506.44;;;14.62;59.10
18900;BME280;9582;52.018;6.306;2023-08-06T03:33:14;100503.03;;;14.60;59.09
18900;BME280;9582;52.018;6.306;2023-08-06T03:35:43;100503.03;;;14.60;59.10
18900;BME280;9582;52.018;6.306;2023-08-06T03:38:10;100502.97;;;14.61;59.11
18900;BME280;9582;52.018;6.306;2023-08-06T03:40:37;100503.88;;;14.60;59.10
18900;BME280;9582;52.018;6.306;2023-08-06T03:43:03;100492.63;;;14.58;59.09
18900;BME280;9582;52.018;6.306;2023-08-06T03:45:30;100487.47;;;14.57;59.06
18900;BME280;9582;52.018;6.306;2023-08-06T03:47:56;100496.31;;;14.56;59.06
18900;BME280;9582;52.018;6.306;2023-08-06T03:50:23;100500.72;;;14.55;59.08
18900;BME280;9582;52.018;6.306;2023-08-06T03:52:51;100497.25;;;14.55;59.04
18900;BME280;9582;52.018;6.306;2023-08-06T03:55:18;100493.69;;;14.56;59.02
18900;BME280;9582;52.018;6.306;2023-08-06T03:57:44;100498.94;;;14.56;59.02
18900;BME280;9582;52.018;6.306;2023-08-06T04:00:11;100496.41;;;14.54;59.00
18900;BME280;9582;52.018;6.306;2023-08-06T04:02:42;100498.19;;;14.54;58.97
18900;BME280;9582;52.018;6.306;2023-08-06T04:05:11;100502.63;;;14.53;58.96
18900;BME280;9582;52.018;6.306;2023-08-06T04:07:38;100500.94;;;14.52;58.94
18900;BME280;9582;52.018;6.306;2023-08-06T04:10:06;100502.72;;;14.52;58.95
18900;BME280;9582;52.018;6.306;2023-08-06T04:12:33;100496.72;;;14.50;58.93
18900;BME280;9582;52.018;6.306;2023-08-06T04:15:03;100501.97;;;14.50;58.83
18900;BME280;9582;52.018;6.306;2023-08-06T04:17:30;100500.28;;;14.49;58.81
18900;BME280;9582;52.018;6.306;2023-08-06T04:19:57;100498.50;;;14.49;58.74
18900;BME280;9582;52.018;6.306;2023-08-06T04:22:24;100502.81;;;14.50;58.69
18900;BME280;9582;52.018;6.306;2023-08-06T04:24:51;100501.03;;;14.51;58.67
18900;BME280;9582;52.018;6.306;2023-08-06T04:27:19;100497.56;;;14.50;58.66
18900;BME280;9582;52.018;6.306;2023-08-06T04:29:47;100496.59;;;14.51;58.65
18900;BME280;9582;52.018;6.306;2023-08-06T04:32:14;100500.94;;;14.52;58.61
18900;BME280;9582;52.018;6.306;2023-08-06T04:34:46;100498.19;;;14.54;58.57
18900;BME280;9582;52.018;6.306;2023-08-06T04:37:13;100492.91;;;14.54;58.57
18900;BME280;9582;52.018;6.306;2023-08-06T04:39:40;100500.00;;;14.53;58.61
18900;BME280;9582;52.018;6.306;2023-08-06T04:42:06;100490.41;;;14.52;58.61
18900;BME280;9582;52.018;6.306;2023-08-06T04:44:34;100494.81;;;14.52;58.62
18900;BME280;9582;52.018;6.306;2023-08-06T04:47:01;100501.78;;;14.53;58.58
18900;BME280;9582;52.018;6.306;2023-08-06T04:49:27;100506.00;;;14.55;58.53
18900;BME280;9582;52.018;6.306;2023-08-06T04:51:54;100509.56;;;14.54;58.49
18900;BME280;9582;52.018;6.306;2023-08-06T04:54:20;100506.84;;;14.56;58.47
18900;BME280;9582;52.018;6.306;2023-08-06T04:56:47;100505.06;;;14.56;58.46
18900;BME280;9582;52.018;6.306;2023-08-06T04:59:13;100511.13;;;14.57;58.43
18900;BME280;9582;52.018;6.306;2023-08-06T05:01:41;100511.06;;;14.58;58.39
18900;BME280;9582;52.018;6.306;2023-08-06T05:04:07;100507.47;;;14.59;58.35
18900;BME280;9582;52.018;6.306;2023-08-06T05:06:34;100506.53;;;14.60;58.35
18900;BME280;9582;52.018;6.306;2023-08-06T05:09:03;100507.06;;;14.65;58.37
18900;BME280;9582;52.018;6.306;2023-08-06T05:11:30;100505.91;;;14.69;58.30
18900;BME280;9582;52.018;6.306;2023-08-06T05:13:56;100514.88;;;14.79;58.25
18900;BME280;9582;52.018;6.306;2023-08-06T05:16:23;100515.53;;;14.83;58.22
18900;BME280;9582;52.018;6.306;2023-08-06T05:18:51;100515.84;;;14.91;58.20
18900;BME280;9582;52.018;6.306;2023-08-06T05:21:17;100506.38;;;14.88;58.22
18900;BME280;9582;52.018;6.306;2023-08-06T05:23:44;100521.97;;;14.91;58.23
18900;BME280;9582;52.018;6.306;2023-08-06T05:26:10;100521.09;;;14.91;58.23
18900;BME280;9582;52.018;6.306;2023-08-06T05:28:39;100520.81;;;14.95;58.26
18900;BME280;9582;52.018;6.306;2023-08-06T05:31:06;100523.25;;;14.98;58.26
18900;BME280;9582;52.018;6.306;2023-08-06T05:33:33;100534.59;;;14.99;58.27
18900;BME280;9582;52.018;6.306;2023-08-06T05:36:01;100526.28;;;14.92;58.32
18900;BME280;9582;52.018;6.306;2023-08-06T05:38:27;100533.66;;;15.00;58.36
18900;BME280;9582;52.018;6.306;2023-08-06T05:40:54;100529.34;;;14.99;58.38
18900;BME280;9582;52.018;6.306;2023-08-06T05:43:21;100541.88;;;14.95;58.46
18900;BME280;9582;52.018;6.306;2023-08-06T05:45:49;100537.22;;;14.99;58.50
18900;BME280;9582;52.018;6.306;2023-08-06T05:48:16;100540.72;;;14.99;58.52
18900;BME280;9582;52.018;6.306;2023-08-06T05:50:42;100543.34;;;14.99;58.58
18900;BME280;9582;52.018;6.306;2023-08-06T05:53:10;100545.13;;;14.99;58.68
18900;BME280;9582;52.018;6.306;2023-08-06T05:55:36;100549.47;;;15.00;58.74
18900;BME280;9582;52.018;6.306;2023-08-06T05:58:03;100544.84;;;15.03;58.78
18900;BME280;9582;52.018;6.306;2023-08-06T06:00:29;100554.59;;;15.01;58.87
18900;BME280;9582;52.018;6.306;2023-08-06T06:02:56;100552.63;;;15.05;58.98
18900;BME280;9582;52.018;6.306;2023-08-06T06:05:22;100553.06;;;15.12;59.04
18900;BME280;9582;52.018;6.306;2023-08-06T06:07:49;100548.63;;;15.12;59.10
18900;BME280;9582;52.018;6.306;2023-08-06T06:10:17;100554.53;;;15.16;59.25
18900;BME280;9582;52.018;6.306;2023-08-06T06:12:43;100565.06;;;15.16;59.46
18900;BME280;9582;52.018;6.306;2023-08-06T06:15:10;100555.59;;;15.26;59.54
18900;BME280;9582;52.018;6.306;2023-08-06T06:17:36;100561.94;;;15.23;59.70
18900;BME280;9582;52.018;6.306;2023-08-06T06:20:04;100560.47;;;15.32;59.86
18900;BME280;9582;52.018;6.306;2023-08-06T06:22:31;100559.47;;;15.33;60.02
18900;BME280;9582;52.018;6.306;2023-08-06T06:24:57;100566.03;;;15.40;60.37
18900;BME280;9582;52.018;6.306;2023-08-06T06:27:25;100556.22;;;15.42;60.69
18900;BME280;9582;52.018;6.306;2023-08-06T06:29:51;100573.03;;;15.53;60.81
18900;BME280;9582;52.018;6.306;2023-08-06T06:32:20;100572.09;;;15.54;61.31
18900;BME280;9582;52.018;6.306;2023-08-06T06:34:46;100572.47;;;15.61;61.70
18900;BME280;9582;52.018;6.306;2023-08-06T06:37:12;100574.69;;;15.67;62.34
18900;BME280;9582;52.018;6.306;2023-08-06T06:39:39;100577.13;;;15.70;63.03
18900;BME280;9582;52.018;6.306;2023-08-06T06:42:06;100581.97;;;15.76;64.23
18900;BME280;9582;52.018;6.306;2023-08-06T06:44:38;100578.56;;;15.87;64.73
18900;BME280;9582;52.018;6.306;2023-08-06T06:47:05;100576.44;;;15.92;66.02
18900;BME280;9582;52.018;6.306;2023-08-06T06:49:31;100587.84;;;15.92;67.12
18900;BME280;9582;52.018;6.306;2023-08-06T06:51:58;100588.06;;;16.02;68.84
18900;BME280;9582;52.018;6.306;2023-08-06T06:54:24;100581.50;;;16.07;70.10
18900;BME280;9582;52.018;6.306;2023-08-06T06:56:51;100591.84;;;16.10;72.65
18900;BME280;9582;52.018;6.306;2023-08-06T06:59:17;100594.69;;;16.07;75.27
18900;BME280;9582;52.018;6.306;2023-08-06T07:01:45;100596.16;;;16.11;78.26
18900;BME280;9582;52.018;6.306;2023-08-06T07:04:12;100605.75;;;16.12;83.64
18900;BME280;9582;52.018;6.306;2023-08-06T07:06:38;100602.56;;;16.20;87.88
18900;BME280;9582;52.018;6.306;2023-08-06T07:09:05;100599.16;;;16.31;92.30
18900;BME280;9582;52.018;6.306;2023-08-06T07:11:31;100597.88;;;16.36;98.91
18900;BME280;9582;52.018;6.306;2023-08-06T07:13:58;100602.75;;;16.30;100.00
18900;BME280;9582;52.018;6.306;2023-08-06T07:16:24;100600.09;;;16.42;100.00
18900;BME280;9582;52.018;6.306;2023-08-06T07:18:53;100613.78;;;16.47;100.00
18900;BME280;9582;52.018;6.306;2023-08-06T07:21:20;100606.50;;;16.51;100.00
18900;BME280;9582;52.018;6.306;2023-08-06T07:23:46;100616.03;;;16.53;100.00
18900;BME280;9582;52.018;6.306;2023-08-06T07:26:15;100612.94;;;16.47;100.00
18900;BME280;9582;52.018;6.306;2023-08-06T07:28:41;100619.06;;;16.47;100.00
18900;BME280;9582;52.018;6.306;2023-08-06T07:31:08;100626.13;;;16.47;100.00
18900;BME280;9582;52.018;6.306;2023-08-06T07:33:35;100627.81;;;16.48;100.00
18900;BME280;9582;52.018;6.306;2023-08-06T07:36:09;100632.69;;;16.54;100.00
18900;BME280;9582;52.018;6.306;2023-08-06T07:38:36;100631.06;;;16.51;100.00
18900;BME280;9582;52.018;6.306;2023-08-06T07:41:02;100635.00;;;16.58;100.00
18900;BME280;9582;52.018;6.306;2023-08-06T07:43:29;100638.53;;;16.70;100.00
18900;BME280;9582;52.018;6.306;2023-08-06T07:45:57;100645.91;;;16.78;100.00
18900;BME280;9582;52.018;6.306;2023-08-06T07:48:24;100645.69;;;16.81;100.00
18900;BME280;9582;52.018;6.306;2023-08-06T07:50:51;100649.63;;;16.99;100.00
18900;BME280;9582;52.018;6.306;2023-08-06T07:53:20;100653.97;;;17.11;100.00
18900;BME280;9582;52.018;6.306;2023-08-06T07:55:49;100650.91;;;17.28;100.00
18900;BME280;9582;52.018;6.306;2023-08-06T07:58:15;100657.50;;;17.22;100.00
18900;BME280;9582;52.018;6.306;2023-08-06T08:00:42;100655.09;;;17.19;100.00
18900;BME280;9582;52.018;6.306;2023-08-06T08:03:10;100657.22;;;17.14;100.00
18900;BME280;9582;52.018;6.306;2023-08-06T08:05:37;100674.44;;;17.20;100.00
18900;BME280;9582;52.018;6.306;2023-08-06T08:08:04;100669.81;;;17.35;100.00
18900;BME280;9582;52.018;6.306;2023-08-06T08:10:32;100678.91;;;17.54;100.00
18900;BME280;9582;52.018;6.306;2023-08-06T08:12:58;100691.31;;;17.65;100.00
18900;BME280;9582;52.018;6.306;2023-08-06T08:15:25;100687.59;;;17.67;100.00
18900;BME280;9582;52.018;6.306;2023-08-06T08:17:52;100696.03;;;17.72;100.00
18900;BME280;9582;52.018;6.306;2023-08-06T08:20:19;100704.78;;;17.73;100.00
18900;BME280;9582;52.018;6.306;2023-08-06T08:22:48;100708.75;;;17.67;100.00
18900;BME280;9582;52.018;6.306;2023-08-06T08:25:16;100718.97;;;17.61;100.00
18900;BME280;9582;52.018;6.306;2023-08-06T08:27:44;100735.22;;;17.44;100.00
18900;BME280;9582;52.018;6.306;2023-08-06T08:30:10;100746.28;;;17.49;100.00
18900;BME280;9582;52.018;6.306;2023-08-06T08:32:37;100750.22;;;17.43;100.00
18900;BME280;9582;52.018;6.306;2023-08-06T08:35:04;100757.75;;;17.37;100.00
18900;BME280;9582;52.018;6.306;2023-08-06T08:37:30;100756.19;;;17.34;100.00
18900;BME280;9582;52.018;6.306;2023-08-06T08:39:57;100775.47;;;17.23;100.00
18900;BME280;9582;52.018;6.306;2023-08-06T08:42:23;100771.91;;;17.12;100.00
18900;BME280;9582;52.018;6.306;2023-08-06T08:44:52;100772.47;;;17.04;100.00
18900;BME280;9582;52.018;6.306;2023-08-06T08:47:20;100783.16;;;17.03;100.00
18900;BME280;9582;52.018;6.306;2023-08-06T08:49:47;100789.41;;;17.02;100.00
18900;BME280;9582;52.018;6.306;2023-08-06T08:52:15;100788.66;;;17.00;100.00
18900;BME280;9582;52.018;6.306;2023-08-06T08:54:43;100793.06;;;16.99;100.00
18900;BME280;9582;52.018;6.306;2023-08-06T08:57:10;100791.69;;;17.06;100.00
18900;BME280;9582;52.018;6.306;2023-08-06T08:59:37;100788.13;;;17.07;100.00
18900;BME280;9582;52.018;6.306;2023-08-06T09:02:05;100793.06;;;17.12;100.00
18900;BME280;9582;52.018;6.306;2023-08-06T09:04:34;100798.75;;;17.18;100.00
18900;BME280;9582;52.018;6.306;2023-08-06T09:07:02;100794.69;;;17.25;100.00
18900;BME280;9582;52.018;6.306;2023-08-06T09:09:31;100796.16;;;17.29;100.00
18900;BME280;9582;52.018;6.306;2023-08-06T09:12:00;100793.91;;;17.36;100.00
18900;BME280;9582;52.018;6.306;2023-08-06T09:14:27;100802.69;;;17.37;100.00
18900;BME280;9582;52.018;6.306;2023-08-06T09:16:54;100801.22;;;17.33;100.00
18900;BME280;9582;52.018;6.306;2023-08-06T09:19:22;100794.88;;;17.35;100.00
18900;BME280;9582;52.018;6.306;2023-08-06T09:21:51;100789.25;;;17.40;100.00
18900;BME280;9582;52.018;6.306;2023-08-06T09:24:17;100806.31;;;17.36;100.00
18900;BME280;9582;52.018;6.306;2023-08-06T09:26:44;100797.84;;;17.30;100.00
18900;BME280;9582;52.018;6.306;2023-08-06T09:29:11;100802.47;;;17.40;100.00
18900;BME280;9582;52.018;6.306;2023-08-06T09:31:41;100803.66;;;17.36;100.00
18900;BME280;9582;52.018;6.306;2023-08-06T09:34:15;100803.66;;;17.36;100.00
18900;BME280;9582;52.018;6.306;2023-08-06T09:36:46;100800.47;;;17.30;100.00
18900;BME280;9582;52.018;6.306;2023-08-06T09:39:13;100805.22;;;17.38;100.00
18900;BME280;9582;52.018;6.306;2023-08-06T09:41:40;100797.31;;;17.38;100.00
18900;BME280;9582;52.018;6.306;2023-08-06T09:44:15;100801.97;;;17.35;100.00
18900;BME280;9582;52.018;6.306;2023-08-06T09:46:43;100792.78;;;17.27;100.00
18900;BME280;9582;52.018;6.306;2023-08-06T09:49:09;100793.25;;;17.21;100.00
18900;BME280;9582;52.018;6.306;2023-08-06T09:51:37;100796.84;;;17.20;100.00
18900;BME280;9582;52.018;6.306;2023-08-06T09:54:07;100793.75;;;17.26;100.00
18900;BME280;9582;52.018;6.306;2023-08-06T09:56:34;100793.41;;;17.31;100.00
18900;BME280;9582;52.018;6.306;2023-08-06T09:59:04;100793.47;;;17.42;100.00
18900;BME280;9582;52.018;6.306;2023-08-06T10:01:32;100789.94;;;17.54;100.00
18900;BME280;9582;52.018;6.306;2023-08-06T10:03:59;100790.81;;;17.55;100.00
18900;BME280;9582;52.018;6.306;2023-08-06T10:06:28;100790.81;;;17.55;100.00
18900;BME280;9582;52.018;6.306;2023-08-06T10:08:54;100792.25;;;17.59;100.00
18900;BME280;9582;52.018;6.306;2023-08-06T10:11:24;100786.13;;;17.58;100.00
18900;BME280;9582;52.018;6.306;2023-08-06T10:13:54;100789.78;;;17.68;100.00
18900;BME280;9582;52.018;6.306;2023-08-06T10:16:23;100789.19;;;17.76;100.00
18900;BME280;9582;52.018;6.306;2023-08-06T10:18:50;100787.44;;;17.87;100.00
18900;BME280;9582;52.018;6.306;2023-08-06T10:21:18;100774.47;;;17.96;100.00
18900;BME280;9582;52.018;6.306;2023-08-06T10:23:53;100777.00;;;17.97;100.00
18900;BME280;9582;52.018;6.306;2023-08-06T10:26:20;100773.75;;;17.94;100.00
18900;BME280;9582;52.018;6.306;2023-08-06T10:28:48;100775.28;;;17.85;100.00
18900;BME280;9582;52.018;6.306;2023-08-06T10:31:14;100777.69;;;17.88;100.00
18900;BME280;9582;52.018;6.306;2023-08-06T10:33:42;100780.97;;;18.03;100.00
18900;BME280;9582;52.018;6.306;2023-08-06T10:36:09;100784.06;;;18.42;100.00
18900;BME280;9582;52.018;6.306;2023-08-06T10:38:44;100775.66;;;18.49;100.00
18900;BME280;9582;52.018;6.306;2023-08-06T10:41:16;100770.72;;;18.55;100.00
18900;BME280;9582;52.018;6.306;2023-08-06T10:43:43;100762.91;;;18.65;100.00
18900;BME280;9582;52.018;6.306;2023-08-06T10:46:21;100766.13;;;18.57;100.00
18900;BME280;9582;52.018;6.306;2023-08-06T10:48:48;100762.78;;;18.55;100.00
18900;BME280;9582;52.018;6.306;2023-08-06T10:51:15;100761.34;;;18.51;100.00
18900;BME280;9582;52.018;6.306;2023-08-06T10:53:43;100758.19;;;18.57;100.00
18900;BME280;9582;52.018;6.306;2023-08-06T10:56:14;100764.69;;;18.53;100.00
18900;BME280;9582;52.018;6.306;2023-08-06T10:58:41;100764.78;;;18.40;100.00
18900;BME280;9582;52.018;6.306;2023-08-06T11:01:07;100764.28;;;18.35;100.00
18900;BME280;9582;52.018;6.306;2023-08-06T11:03:36;100771.50;;;18.22;100.00
18900;BME280;9582;52.018;6.306;2023-08-06T11:06:03;100768.16;;;18.20;100.00
18900;BME280;9582;52.018;6.306;2023-08-06T11:08:34;100757.81;;;18.17;100.00
18900;BME280;9582;52.018;6.306;2023-08-06T11:11:08;100762.81;;;18.09;100.00
18900;BME280;9582;52.018;6.306;2023-08-06T11:13:36;100758.84;;;18.15;100.00
18900;BME280;9582;52.018;6.306;2023-08-06T11:16:03;100754.63;;;18.01;100.00
18900;BME280;9582;52.018;6.306;2023-08-06T11:18:29;100757.28;;;18.01;100.00
18900;BME280;9582;52.018;6.306;2023-08-06T11:20:59;100750.41;;;17.99;100.00
18900;BME280;9582;52.018;6.306;2023-08-06T11:23:27;100757.50;;;17.98;100.00
18900;BME280;9582;52.018;6.306;2023-08-06T11:25:54;100755.59;;;17.89;100.00
18900;BME280;9582;52.018;6.306;2023-08-06T11:28:21;100752.72;;;17.92;100.00
18900;BME280;9582;52.018;6.306;2023-08-06T11:30:47;100752.09;;;18.00;100.00
18900;BME280;9582;52.018;6.306;2023-08-06T11:33:14;100758.13;;;18.02;100.00
18900;BME280;9582;52.018;6.306;2023-08-06T11:35:40;100768.38;;;18.06;100.00
18900;BME280;9582;52.018;6.306;2023-08-06T11:38:08;100768.09;;;17.98;100.00
18900;BME280;9582;52.018;6.306;2023-08-06T11:40:35;100756.16;;;17.93;100.00
18900;BME280;9582;52.018;6.306;2023-08-06T11:43:02;100762.06;;;17.85;100.00
18900;BME280;9582;52.018;6.306;2023-08-06T11:45:28;100760.72;;;17.79;100.00
18900;BME280;9582;52.018;6.306;2023-08-06T11:47:55;100765.63;;;17.73;100.00
18900;BME280;9582;52.018;6.306;2023-08-06T11:50:22;100767.66;;;17.69;100.00
18900;BME280;9582;52.018;6.306;2023-08-06T11:52:52;100767.03;;;17.66;100.00
18900;BME280;9582;52.018;6.306;2023-08-06T11:55:23;100773.97;;;17.56;100.00
18900;BME280;9582;52.018;6.306;2023-08-06T11:57:50;100776.31;;;17.48;100.00
18900;BME280;9582;52.018;6.306;2023-08-06T12:00:16;100780.09;;;17.33;100.00
18900;BME280;9582;52.018;6.306;2023-08-06T12:02:45;100776.84;;;17.16;100.00
18900;BME280;9582;52.018;6.306;2023-08-06T12:05:15;100778.50;;;16.94;100.00
18900;BME280;9582;52.018;6.306;2023-08-06T12:07:44;100778.88;;;16.77;100.00
18900;BME280;9582;52.018;6.306;2023-08-06T12:10:12;100786.41;;;16.57;100.00
18900;BME280;9582;52.018;6.306;2023-08-06T12:12:40;100795.38;;;16.42;100.00
18900;BME280;9582;52.018;6.306;2023-08-06T12:15:08;100791.88;;;16.29;100.00
18900;BME280;9582;52.018;6.306;2023-08-06T12:17:36;100799.69;;;16.18;100.00
18900;BME280;9582;52.018;6.306;2023-08-06T12:20:03;100802.41;;;16.04;100.00
18900;BME280;9582;52.018;6.306;2023-08-06T12:22:31;100810.84;;;15.96;100.00
18900;BME280;9582;52.018;6.306;2023-08-06T12:25:00;100813.78;;;15.92;100.00
18900;BME280;9582;52.018;6.306;2023-08-06T12:27:28;100810.00;;;15.83;100.00
18900;BME280;9582;52.018;6.306;2023-08-06T12:29:57;100815.47;;;15.80;100.00
18900;BME280;9582;52.018;6.306;2023-08-06T12:32:23;100816.47;;;15.78;100.00
18900;BME280;9582;52.018;6.306;2023-08-06T12:34:50;100809.81;;;15.72;100.00
18900;BME280;9582;52.018;6.306;2023-08-06T12:37:16;100810.19;;;15.80;100.00
18900;BME280;9582;52.018;6.306;2023-08-06T12:39:42;100814.00;;;15.89;100.00
18900;BME280;9582;52.018;6.306;2023-08-06T12:42:09;100811.78;;;15.95;100.00
18900;BME280;9582;52.018;6.306;2023-08-06T12:44:36;100820.66;;;15.94;100.00
18900;BME280;9582;52.018;6.306;2023-08-06T12:47:04;100820.75;;;15.80;100.00
18900;BME280;9582;52.018;6.306;2023-08-06T12:49:30;100830.38;;;15.67;100.00
18900;BME280;9582;52.018;6.306;2023-08-06T12:51:58;100830.25;;;15.56;100.00
18900;BME280;9582;52.018;6.306;2023-08-06T12:54:25;100829.13;;;15.46;100.00
18900;BME280;9582;52.018;6.306;2023-08-06T12:56:51;100837.13;;;15.44;100.00